Time;durP1;ratioP1;P1;durP2;ratioP2;P2;SDS_P1;SDS_P2;PMS_P1;PMS_P2;Temp;Humidity;BMP_temperature;BMP_pressure;BME280_temperature;BME280_humidity;BME280_pressure;Samples;Min_cycle;Max_cycle;Signal;HPM_P1;HPM_P2
2022/11/23 00:04:19;;;;;;;8.97;1.70;;;;;8.70;99087.00;;;;10443184;28;20649;-78
2022/11/23 00:09:21;;;;;;;5.70;1.73;;;;;8.70;99085.00;;;;10458429;28;20214;-78
2022/11/23 00:14:23;;;;;;;7.20;1.43;;;;;8.60;99088.00;;;;10426654;28;20647;-77
2022/11/23 00:19:25;;;;;;;6.97;1.47;;;;;8.60;99092.00;;;;10426408;28;20599;-78
2022/11/23 00:24:27;;;;;;;7.47;1.20;;;;;8.60;99091.00;;;;10426522;28;20764;-77
2022/11/23 00:29:29;;;;;;;9.63;1.87;;;;;8.60;99089.00;;;;10459249;28;20202;-78
2022/11/23 00:34:31;;;;;;;9.27;1.90;;;;;8.50;99084.00;;;;10475223;28;20217;-77
2022/11/23 00:39:33;;;;;;;14.03;2.07;;;;;8.50;99085.00;;;;10442175;28;20200;-78
2022/11/23 00:44:35;;;;;;;8.47;1.83;;;;;8.50;99096.00;;;;10428910;28;20198;-77
2022/11/23 00:49:37;;;;;;;9.87;2.27;;;;;8.50;99088.00;;;;10458487;28;20598;-78
2022/11/23 00:54:39;;;;;;;7.73;2.43;;;;;8.50;99099.00;;;;10442394;28;20196;-78
2022/11/23 00:59:41;;;;;;;8.50;1.80;;;;;8.60;99092.00;;;;10441695;28;20209;-78
2022/11/23 01:04:43;;;;;;;7.57;1.53;;;;;8.60;99100.00;;;;10424149;28;20561;-78
2022/11/23 01:09:45;;;;;;;10.53;1.63;;;;;8.50;99084.00;;;;10466002;28;20264;-78
2022/11/23 01:14:47;;;;;;;11.03;1.40;;;;;8.50;99094.00;;;;10433470;28;20254;-78
2022/11/23 01:19:49;;;;;;;8.90;2.03;;;;;8.50;99089.00;;;;10466096;28;20232;-77
2022/11/23 01:24:51;;;;;;;8.60;2.10;;;;;8.50;99100.00;;;;10452893;28;20213;-78
2022/11/23 01:29:52;;;;;;;7.57;1.90;;;;;8.50;99104.00;;;;10443276;28;20215;-77
2022/11/23 01:34:54;;;;;;;5.63;1.93;;;;;8.50;99098.00;;;;10460259;28;20194;-77
2022/11/23 01:39:56;;;;;;;11.87;2.77;;;;;8.50;99104.00;;;;10410804;28;20277;-78
2022/11/23 01:45:33;;;;;;;9.97;1.90;;;;;8.60;99119.00;;;;10468024;28;20201;-78
2022/11/23 01:50:35;;;;;;;10.77;2.23;;;;;8.60;99111.00;;;;10451640;28;20219;-78
2022/11/23 01:55:38;;;;;;;8.07;1.60;;;;;8.60;99114.00;;;;10451794;28;20192;-78
2022/11/23 02:00:40;;;;;;;9.37;2.03;;;;;8.60;99112.00;;;;10435584;28;20185;-78
2022/11/23 02:05:58;;;;;;;9.70;2.80;;;;;8.60;99106.00;;;;10462027;28;20237;-78
2022/11/23 02:11:00;;;;;;;9.53;2.00;;;;;8.60;99114.00;;;;10426293;28;20292;-78
2022/11/23 02:16:02;;;;;;;8.40;2.03;;;;;8.60;99114.00;;;;10437482;28;20271;-78
2022/11/23 02:21:04;;;;;;;8.80;2.13;;;;;8.50;99117.00;;;;10445924;28;20268;-78
2022/11/23 02:26:08;;;;;;;4.27;1.77;;;;;8.50;99114.00;;;;10447265;28;20221;-78
2022/11/23 02:31:10;;;;;;;8.83;1.80;;;;;8.50;99113.00;;;;10430390;28;20305;-78
2022/11/23 02:36:27;;;;;;;13.73;2.53;;;;;8.40;99104.00;;;;10434319;28;20225;-78
2022/11/23 02:41:50;;;;;;;8.27;2.47;;;;;8.30;99116.00;;;;10462896;28;20726;-78
2022/11/23 02:46:52;;;;;;;11.90;2.13;;;;;8.20;99117.00;;;;10446231;28;20210;-78
2022/11/23 02:51:54;;;;;;;7.97;2.20;;;;;8.20;99117.00;;;;10445785;28;20263;-78
2022/11/23 02:57:00;;;;;;;12.20;2.37;;;;;8.20;99118.00;;;;10462272;28;20544;-78
2022/11/23 03:02:04;;;;;;;8.63;2.27;;;;;8.20;99128.00;;;;10445260;28;20567;-78
2022/11/23 03:07:06;;;;;;;13.67;2.10;;;;;8.20;99123.00;;;;10445177;28;20757;-78
2022/11/23 03:12:09;;;;;;;3.80;1.67;;;;;8.20;99127.00;;;;10424144;28;20245;-78
2022/11/23 03:17:12;;;;;;;8.83;2.03;;;;;8.20;99146.00;;;;10444663;28;20370;-78
2022/11/23 03:22:15;;;;;;;9.33;2.10;;;;;8.20;99138.00;;;;10445985;28;20198;-78
2022/11/23 03:27:17;;;;;;;12.07;2.77;;;;;8.20;99141.00;;;;10443864;28;20205;-78
2022/11/23 03:32:20;;;;;;;8.73;2.43;;;;;8.10;99147.00;;;;10460292;28;20252;-77
2022/11/23 03:37:26;;;;;;;13.20;2.33;;;;;7.90;99146.00;;;;10419572;28;20186;-78
2022/11/23 03:42:28;;;;;;;8.70;2.17;;;;;7.90;99148.00;;;;10419477;28;20182;-77
2022/11/23 03:47:31;;;;;;;9.83;2.57;;;;;7.80;99145.00;;;;10415117;28;20259;-77
2022/11/23 03:52:33;;;;;;;5.80;1.77;;;;;7.60;99149.00;;;;10426841;28;20703;-77
2022/11/23 03:57:35;;;;;;;9.43;1.97;;;;;7.50;99146.00;;;;10459993;28;20273;-76
2022/11/23 04:02:39;;;;;;;8.73;2.47;;;;;7.40;99142.00;;;;10443610;28;20177;-77
2022/11/23 04:07:47;;;;;;;11.03;1.97;;;;;7.40;99152.00;;;;10427658;28;20222;-77
2022/11/23 04:12:51;;;;;;;8.57;1.97;;;;;7.40;99143.00;;;;10459052;28;20229;-77
2022/11/23 04:17:54;;;;;;;7.33;2.33;;;;;7.30;99143.00;;;;10459249;28;20255;-77
2022/11/23 04:22:56;;;;;;;6.87;2.10;;;;;7.30;99140.00;;;;10409935;28;20190;-77
2022/11/23 04:28:00;;;;;;;9.10;2.03;;;;;7.30;99127.00;;;;10434894;28;20284;-77
2022/11/23 04:33:02;;;;;;;10.30;2.00;;;;;7.30;99125.00;;;;10442485;28;20292;-77
2022/11/23 04:38:05;;;;;;;10.07;1.90;;;;;7.30;99123.00;;;;10455986;28;20228;-77
2022/11/23 04:43:08;;;;;;;16.53;2.40;;;;;7.30;99120.00;;;;10441236;28;20197;-77
2022/11/23 04:48:11;;;;;;;14.47;2.33;;;;;7.30;99117.00;;;;10442562;28;20198;-77
2022/11/23 04:53:13;;;;;;;10.77;2.33;;;;;7.20;99113.00;;;;10443701;28;20204;-77
2022/11/23 04:58:20;;;;;;;15.10;2.33;;;;;7.10;99107.00;;;;10442602;28;20673;-77
2022/11/23 05:03:30;;;;;;;10.97;1.80;;;;;7.00;99115.00;;;;10425922;28;20204;-78
2022/11/23 05:08:34;;;;;;;13.23;2.07;;;;;7.00;99119.00;;;;10445127;28;20241;-77
2022/11/23 05:14:01;;;;;;;10.87;2.27;;;;;6.90;99103.00;;;;10420429;28;20197;-77
2022/11/23 05:19:04;;;;;;;8.83;1.90;;;;;6.90;99110.00;;;;10413377;28;20190;-77
2022/11/23 05:24:07;;;;;;;9.40;2.13;;;;;6.70;99114.00;;;;10440932;28;20225;-77
2022/11/23 05:29:13;;;;;;;9.90;2.20;;;;;6.60;99118.00;;;;10441894;28;20217;-77
2022/11/23 05:34:15;;;;;;;7.37;1.50;;;;;6.50;99116.00;;;;10424604;28;20202;-77
2022/11/23 05:39:20;;;;;;;8.90;1.80;;;;;6.40;99110.00;;;;10441926;28;20193;-77
2022/11/23 05:44:25;;;;;;;8.27;1.77;;;;;6.30;99117.00;;;;10441327;28;20193;-77
2022/11/23 05:49:27;;;;;;;10.40;2.10;;;;;6.20;99107.00;;;;10440490;28;20293;-77
2022/11/23 05:54:30;;;;;;;9.57;1.87;;;;;6.30;99118.00;;;;10423941;28;20212;-78
2022/11/23 05:59:52;;;;;;;10.03;2.03;;;;;6.40;99103.00;;;;10484065;28;20202;-77
2022/11/23 06:04:59;;;;;;;6.27;1.47;;;;;6.30;99105.00;;;;10447114;28;20200;-77
2022/11/23 06:10:12;;;;;;;6.20;1.83;;;;;6.20;99102.00;;;;10447329;28;20249;-77
2022/11/23 06:15:18;;;;;;;10.10;2.23;;;;;6.20;99103.00;;;;10448124;28;20182;-77
2022/11/23 06:20:21;;;;;;;8.87;2.00;;;;;6.30;99103.00;;;;10438159;28;20199;-77
2022/11/23 06:25:32;;;;;;;8.03;2.20;;;;;6.30;99114.00;;;;10406896;28;20624;-77
2022/11/23 06:30:39;;;;;;;10.40;2.23;;;;;6.20;99105.00;;;;10421951;28;20281;-77
2022/11/23 06:35:42;;;;;;;7.97;1.83;;;;;6.20;99099.00;;;;10437085;28;20190;-77
2022/11/23 06:40:44;;;;;;;6.07;1.63;;;;;6.20;99109.00;;;;10463374;28;20198;-77
2022/11/23 06:45:46;;;;;;;4.77;1.90;;;;;6.20;99114.00;;;;10430463;28;20189;-77
2022/11/23 06:50:50;;;;;;;9.67;2.40;;;;;6.10;99110.00;;;;10446664;28;20695;-77
2022/11/23 06:55:58;;;;;;;11.03;1.97;;;;;6.00;99117.00;;;;10429739;28;20189;-77
2022/11/23 07:01:04;;;;;;;9.43;1.87;;;;;6.00;99126.00;;;;10445397;28;20732;-77
2022/11/23 07:06:11;;;;;;;11.90;2.30;;;;;6.00;99132.00;;;;10420159;28;20612;-77
2022/11/23 07:11:15;;;;;;;8.70;2.17;;;;;6.00;99128.00;;;;10421080;28;20221;-77
2022/11/23 07:16:17;;;;;;;9.27;2.23;;;;;6.00;99145.00;;;;10420960;28;20556;-78
2022/11/23 07:21:20;;;;;;;8.93;2.73;;;;;6.00;99136.00;;;;10420485;28;20187;-77
2022/11/23 07:26:21;;;;;;;7.93;2.20;;;;;6.00;99156.00;;;;10403870;28;20209;-77
2022/11/23 07:31:23;;;;;;;9.20;2.37;;;;;6.00;99168.00;;;;10431791;28;20304;-77
2022/11/23 07:36:25;;;;;;;12.03;2.20;;;;;6.00;99182.00;;;;10423423;28;20213;-77
2022/11/23 07:41:27;;;;;;;8.30;2.60;;;;;6.00;99186.00;;;;10425517;28;20198;-78
2022/11/23 07:46:42;;;;;;;12.70;2.60;;;;;6.00;99194.00;;;;10441173;28;20203;-78
2022/11/23 07:51:44;;;;;;;12.57;2.63;;;;;6.00;99197.00;;;;10428781;28;20217;-78
2022/11/23 07:56:45;;;;;;;9.67;2.27;;;;;6.10;99209.00;;;;10460175;28;20280;-77
2022/11/23 08:01:47;;;;;;;12.33;2.73;;;;;6.20;99216.00;;;;10424423;28;20809;-77
2022/11/23 08:06:55;;;;;;;13.93;2.57;;;;;6.20;99204.00;;;;10443936;28;20209;-77
2022/11/23 08:11:57;;;;;;;8.77;2.67;;;;;6.30;99205.00;;;;10440179;28;20560;-78
2022/11/23 08:16:59;;;;;;;25.50;3.07;;;;;6.30;99212.00;;;;10424318;28;20258;-77
2022/11/23 08:22:01;;;;;;;9.83;2.67;;;;;6.40;99213.00;;;;10444178;28;20236;-77
2022/11/23 08:27:02;;;;;;;9.67;2.53;;;;;6.60;99216.00;;;;10438481;28;20624;-78
2022/11/23 08:32:04;;;;;;;10.23;2.60;;;;;6.90;99213.00;;;;10411116;28;20304;-78
2022/11/23 08:37:06;;;;;;;11.50;3.20;;;;;7.10;99203.00;;;;10452913;28;20225;-78
2022/11/23 08:42:09;;;;;;;9.70;2.57;;;;;7.20;99185.00;;;;10452597;28;20185;-78
2022/11/23 08:47:11;;;;;;;8.33;2.33;;;;;7.30;99177.00;;;;10430344;28;20196;-77
2022/11/23 08:52:13;;;;;;;12.83;3.00;;;;;7.40;99172.00;;;;10451932;28;20205;-77
2022/11/23 08:57:15;;;;;;;7.27;1.87;;;;;7.80;99158.00;;;;10460369;28;20190;-78
2022/11/23 09:02:17;;;;;;;9.27;2.53;;;;;8.10;99139.00;;;;10457051;28;20190;-79
2022/11/23 09:07:19;;;;;;;11.30;2.67;;;;;8.40;99133.00;;;;10445723;28;20218;-78
2022/11/23 09:12:21;;;;;;;9.50;2.40;;;;;8.50;99134.00;;;;10446545;28;20204;-79
2022/11/23 09:17:23;;;;;;;10.57;2.50;;;;;8.70;99134.00;;;;10435551;28;20186;-78
2022/11/23 09:22:25;;;;;;;7.53;2.90;;;;;8.80;99136.00;;;;10434608;28;20217;-78
2022/11/23 09:27:27;;;;;;;10.83;2.20;;;;;9.10;99132.00;;;;10438591;28;20300;-77
2022/11/23 09:32:31;;;;;;;6.33;2.03;;;;;9.00;99143.00;;;;10451415;28;20213;-77
2022/11/23 09:37:33;;;;;;;9.07;2.00;;;;;9.00;99138.00;;;;10452245;28;20652;-77
2022/11/23 09:42:57;;;;;;;10.57;2.40;;;;;9.20;99144.00;;;;10441192;28;20174;-78
2022/11/23 09:48:23;;;;;;;8.37;2.00;;;;;9.40;99134.00;;;;10449957;28;20182;-77
2022/11/23 09:53:33;;;;;;;6.67;2.23;;;;;9.60;99139.00;;;;10460002;28;20212;-78
2022/11/23 09:58:38;;;;;;;8.33;1.90;;;;;9.60;99122.00;;;;10416077;28;20284;-78
2022/11/23 10:03:42;;;;;;;8.90;2.93;;;;;9.50;99121.00;;;;10432499;28;20275;-78
2022/11/23 10:08:55;;;;;;;5.53;1.70;;;;;9.60;99099.00;;;;10443356;28;20572;-78
2022/11/23 10:14:22;;;;;;;8.90;1.23;;;;;10.30;99099.00;;;;10446055;28;20630;-79
2022/11/23 10:19:30;;;;;;;5.03;1.47;;;;;10.20;99092.00;;;;10424754;28;20194;-78
2022/11/23 10:24:36;;;;;;;2.90;1.47;;;;;10.60;99075.00;;;;10413235;28;20262;-78
2022/11/23 10:29:40;;;;;;;5.63;1.63;;;;;10.60;99063.00;;;;10444207;28;20202;-78
2022/11/23 10:34:57;;;;;;;3.53;1.27;;;;;10.70;99048.00;;;;10414373;28;20186;-79
2022/11/23 10:39:59;;;;;;;3.83;1.60;;;;;10.80;99047.00;;;;10429828;28;20193;-79
2022/11/23 10:45:01;;;;;;;4.70;1.57;;;;;10.90;99042.00;;;;10413331;28;20195;-79
2022/11/23 10:50:19;;;;;;;3.90;1.73;;;;;10.80;99035.00;;;;10426115;28;20314;-79
2022/11/23 10:55:25;;;;;;;5.63;1.80;;;;;10.60;99020.00;;;;10412944;28;20283;-80
2022/11/23 11:00:28;;;;;;;3.87;1.43;;;;;10.60;99001.00;;;;10459320;28;20196;-79
2022/11/23 11:05:35;;;;;;;5.53;2.73;;;;;10.70;99004.00;;;;10422856;28;20197;-79
2022/11/23 11:11:10;;;;;;;3.53;1.23;;;;;10.60;98993.00;;;;10467044;28;20205;-78
2022/11/23 11:16:31;;;;;;;7.37;1.70;;;;;10.40;98978.00;;;;10460392;28;20644;-79
2022/11/23 11:21:39;;;;;;;3.50;1.30;;;;;10.60;98983.00;;;;10437289;28;20194;-79
2022/11/23 11:26:56;;;;;;;3.53;1.50;;;;;11.00;98962.00;;;;10432164;28;20664;-78
2022/11/23 11:32:04;;;;;;;5.50;1.10;;;;;11.30;98962.00;;;;10433622;28;20660;-80
2022/11/23 11:37:21;;;;;;;3.83;1.53;;;;;11.20;98951.00;;;;10440168;28;20255;-79
2022/11/23 11:42:34;;;;;;;2.67;1.20;;;;;11.20;98937.00;;;;10459571;28;20272;-80
2022/11/23 11:47:43;;;;;;;3.90;1.47;;;;;11.40;98930.00;;;;10423176;28;20210;-78
2022/11/23 11:52:47;;;;;;;4.97;1.70;;;;;11.40;98927.00;;;;10430940;28;20251;-78
2022/11/23 11:58:04;;;;;;;3.67;1.20;;;;;11.40;98917.00;;;;10412017;28;20710;-79
2022/11/23 12:03:13;;;;;;;4.70;1.17;;;;;11.20;98918.00;;;;10420480;28;20190;-78
2022/11/23 12:08:29;;;;;;;7.97;1.57;;;;;11.00;98919.00;;;;10421711;28;20249;-78
2022/11/23 12:13:34;;;;;;;2.90;1.00;;;;;10.80;98907.00;;;;10431009;28;20198;-78
2022/11/23 12:18:54;;;;;;;4.43;1.00;;;;;10.50;98913.00;;;;10452138;28;20212;-78
2022/11/23 12:24:39;;;;;;;3.40;0.87;;;;;10.50;98921.00;;;;10426829;28;20186;-78
2022/11/23 12:29:45;;;;;;;5.53;1.07;;;;;10.30;98926.00;;;;10366629;28;20681;-78
2022/11/23 12:35:16;;;;;;;6.10;1.40;;;;;10.00;98927.00;;;;10427298;28;20192;-77
2022/11/23 12:41:02;;;;;;;4.43;0.93;;;;;9.60;98924.00;;;;10447408;28;20186;-77
2022/11/23 12:46:19;;;;;;;3.30;1.03;;;;;9.20;98950.00;;;;10442197;28;20738;-77
2022/11/23 12:51:49;;;;;;;3.10;1.10;;;;;8.90;98941.00;;;;10453744;28;20209;-77
2022/11/23 12:57:10;;;;;;;5.60;1.13;;;;;8.80;98965.00;;;;10434592;28;20190;-78
2022/11/23 13:02:46;;;;;;;2.10;0.80;;;;;8.60;98980.00;;;;10422622;28;20243;-77
2022/11/23 13:08:28;;;;;;;2.77;0.70;;;;;8.40;99025.00;;;;10434793;28;20225;-78
2022/11/23 13:13:47;;;;;;;2.40;1.10;;;;;8.40;99047.00;;;;10459642;28;20610;-77
2022/11/23 13:19:13;;;;;;;3.27;0.93;;;;;8.40;99040.00;;;;10438617;28;20835;-77
2022/11/23 13:24:30;;;;;;;3.27;1.07;;;;;8.40;99017.00;;;;10464286;28;20194;-77
2022/11/23 13:29:48;;;;;;;3.10;0.90;;;;;8.30;99014.00;;;;10447210;28;20209;-77
2022/11/23 13:34:50;;;;;;;3.23;0.90;;;;;8.20;99018.00;;;;10434339;28;20193;-77
2022/11/23 13:39:56;;;;;;;4.43;1.10;;;;;8.20;99028.00;;;;10414854;28;20188;-77
2022/11/23 13:45:23;;;;;;;2.50;1.00;;;;;8.20;99039.00;;;;10435559;28;20201;-77
2022/11/23 13:50:25;;;;;;;3.03;0.80;;;;;8.10;99031.00;;;;10447755;28;20209;-77
2022/11/23 13:55:37;;;;;;;2.43;0.63;;;;;8.10;99054.00;;;;10448358;28;20191;-77
2022/11/23 14:00:45;;;;;;;2.50;0.90;;;;;8.00;99065.00;;;;10445265;28;20266;-77
2022/11/23 14:05:47;;;;;;;3.40;0.97;;;;;8.00;99067.00;;;;10422831;28;20735;-76
2022/11/23 14:10:49;;;;;;;2.77;0.93;;;;;8.00;99082.00;;;;10424031;28;20210;-76
2022/11/23 14:15:56;;;;;;;1.87;1.03;;;;;8.00;99091.00;;;;10435588;28;20193;-76
2022/11/23 14:21:31;;;;;;;2.97;0.97;;;;;7.90;99071.00;;;;10420638;28;20671;-77
2022/11/23 14:27:08;;;;;;;0.90;0.70;;;;;7.90;99085.00;;;;10425053;28;20203;-77
2022/11/23 14:32:54;;;;;;;3.93;1.03;;;;;7.90;99107.00;;;;10456437;28;20213;-76
2022/11/23 14:38:13;;;;;;;1.53;0.90;;;;;7.90;99093.00;;;;10459278;28;20213;-77
2022/11/23 14:43:18;;;;;;;2.00;1.03;;;;;7.80;99105.00;;;;10475334;28;20645;-77
2022/11/23 14:48:28;;;;;;;1.97;1.10;;;;;7.90;99099.00;;;;10432323;28;20239;-77
2022/11/23 14:53:34;;;;;;;3.33;0.73;;;;;8.00;99119.00;;;;10464462;28;20210;-77
2022/11/23 14:58:36;;;;;;;3.63;1.10;;;;;8.10;99104.00;;;;10417199;28;20186;-77
2022/11/23 15:03:39;;;;;;;1.27;0.90;;;;;8.30;99122.00;;;;10434183;28;20221;-76
2022/11/23 15:09:04;;;;;;;1.20;0.63;;;;;8.30;99124.00;;;;10438925;28;20407;-76
2022/11/23 15:14:24;;;;;;;3.30;1.07;;;;;8.30;99143.00;;;;10430434;28;20210;-77
2022/11/23 15:19:28;;;;;;;2.67;1.10;;;;;8.40;99149.00;;;;10466762;28;20197;-77
2022/11/23 15:24:30;;;;;;;2.43;0.90;;;;;8.40;99146.00;;;;10422128;28;20214;-77
2022/11/23 15:29:37;;;;;;;2.07;0.90;;;;;8.40;99184.00;;;;10436466;28;20221;-76
2022/11/23 15:34:40;;;;;;;4.43;1.40;;;;;8.40;99175.00;;;;10433026;28;20196;-77
2022/11/23 15:39:42;;;;;;;1.87;1.10;;;;;8.30;99176.00;;;;10450400;28;20644;-77
2022/11/23 15:44:45;;;;;;;4.30;1.53;;;;;8.20;99192.00;;;;10458437;28;20209;-77
2022/11/23 15:50:03;;;;;;;2.47;1.30;;;;;8.10;99199.00;;;;10455103;28;20206;-77
2022/11/23 15:55:11;;;;;;;5.03;1.33;;;;;7.80;99214.00;;;;10465090;28;20724;-76
2022/11/23 16:00:24;;;;;;;3.73;2.07;;;;;7.60;99222.00;;;;10420914;28;20286;-77
2022/11/23 16:05:27;;;;;;;1.20;1.07;;;;;7.40;99230.00;;;;10430935;28;20267;-77
2022/11/23 16:10:30;;;;;;;2.30;1.47;;;;;7.30;99238.00;;;;10417808;28;20203;-77
2022/11/23 16:15:47;;;;;;;6.20;1.90;;;;;7.20;99241.00;;;;10421815;28;20657;-76
2022/11/23 16:20:54;;;;;;;3.87;1.30;;;;;7.20;99267.00;;;;10411595;28;20832;-77
2022/11/23 16:26:04;;;;;;;2.70;1.80;;;;;7.20;99277.00;;;;10435130;28;20288;-76
2022/11/23 16:31:30;;;;;;;7.47;2.30;;;;;7.10;99284.00;;;;10439483;28;20263;-76
2022/11/23 16:36:32;;;;;;;6.17;1.93;;;;;7.10;99292.00;;;;10407660;28;20201;-77
2022/11/23 16:41:34;;;;;;;3.27;1.67;;;;;7.10;99305.00;;;;10421014;28;20193;-77
2022/11/23 16:46:36;;;;;;;4.17;2.47;;;;;7.10;99317.00;;;;10440739;28;20209;-77
2022/11/23 16:51:48;;;;;;;7.23;2.60;;;;;7.00;99316.00;;;;10420044;28;20206;-76
2022/11/23 16:56:57;;;;;;;7.67;2.93;;;;;7.00;99309.00;;;;10454945;28;20194;-77
2022/11/23 17:01:59;;;;;;;6.90;3.27;;;;;7.00;99322.00;;;;10425630;28;20666;-76
2022/11/23 17:07:01;;;;;;;7.00;2.70;;;;;6.90;99338.00;;;;10399941;28;20206;-77
2022/11/23 17:12:06;;;;;;;3.53;2.20;;;;;6.90;99339.00;;;;10453301;28;20258;-77
2022/11/23 17:17:18;;;;;;;5.93;2.70;;;;;6.90;99344.00;;;;10433621;28;20194;-76
2022/11/23 17:22:20;;;;;;;7.53;2.87;;;;;6.80;99366.00;;;;10418609;28;20184;-77
2022/11/23 17:27:23;;;;;;;6.73;3.03;;;;;6.80;99375.00;;;;10434994;28;20233;-77
2022/11/23 17:32:26;;;;;;;10.70;3.40;;;;;6.70;99389.00;;;;10452353;28;20304;-76
2022/11/23 17:37:27;;;;;;;7.10;3.53;;;;;6.70;99390.00;;;;10456596;28;20256;-76
2022/11/23 17:42:29;;;;;;;5.80;3.20;;;;;6.70;99408.00;;;;10406902;28;20201;-77
2022/11/23 17:47:31;;;;;;;16.07;4.00;;;;;6.80;99412.00;;;;10415962;28;20736;-76
2022/11/23 17:52:33;;;;;;;13.27;3.63;;;;;6.80;99415.00;;;;10443240;28;20308;-76
2022/11/23 17:57:37;;;;;;;8.77;3.07;;;;;6.80;99424.00;;;;10458842;28;20576;-77
2022/11/23 18:02:39;;;;;;;11.03;5.07;;;;;6.70;99444.00;;;;10446716;28;20285;-77
2022/11/23 18:07:41;;;;;;;10.87;3.30;;;;;6.80;99447.00;;;;10428202;28;20242;-78
2022/11/23 18:12:44;;;;;;;13.33;4.23;;;;;6.80;99452.00;;;;10421586;28;20206;-77
2022/11/23 18:17:46;;;;;;;15.10;4.33;;;;;6.80;99458.00;;;;10429005;28;20530;-77
2022/11/23 18:22:48;;;;;;;11.47;3.97;;;;;6.90;99460.00;;;;10402504;28;20835;-77
2022/11/23 18:27:50;;;;;;;12.60;4.80;;;;;6.90;99461.00;;;;10452546;28;20690;-77
2022/11/23 18:32:52;;;;;;;11.67;4.37;;;;;7.10;99466.00;;;;10420987;28;20216;-77
2022/11/23 18:37:54;;;;;;;18.03;4.03;;;;;7.20;99453.00;;;;10423025;28;20207;-77
2022/11/23 18:42:57;;;;;;;14.07;3.83;;;;;7.20;99468.00;;;;10436486;28;20243;-77
2022/11/23 18:47:59;;;;;;;16.03;4.30;;;;;7.20;99483.00;;;;10423679;28;20189;-77
2022/11/23 18:53:01;;;;;;;19.17;4.80;;;;;7.20;99490.00;;;;10452996;28;20388;-77
2022/11/23 18:58:03;;;;;;;14.50;3.77;;;;;7.30;99501.00;;;;10400561;28;20196;-76
2022/11/23 19:03:09;;;;;;;15.00;4.10;;;;;7.40;99508.00;;;;10426813;28;20678;-78
2022/11/23 19:08:13;;;;;;;19.50;4.77;;;;;7.40;99514.00;;;;10415567;28;20213;-77
2022/11/23 19:13:14;;;;;;;21.77;5.07;;;;;7.50;99514.00;;;;10435000;28;20212;-77
2022/11/23 19:18:16;;;;;;;22.77;4.63;;;;;7.60;99516.00;;;;10432469;28;20587;-77
2022/11/23 19:23:18;;;;;;;18.80;6.30;;;;;7.70;99519.00;;;;10426376;28;20534;-77
2022/11/23 19:28:20;;;;;;;18.30;5.30;;;;;7.80;99524.00;;;;10443296;28;20311;-77
2022/11/23 19:33:22;;;;;;;16.23;4.23;;;;;7.90;99544.00;;;;10431725;28;20206;-77
2022/11/23 19:38:24;;;;;;;21.03;5.07;;;;;7.90;99547.00;;;;10468272;28;20204;-77
2022/11/23 19:43:26;;;;;;;19.87;4.50;;;;;8.00;99568.00;;;;10434900;28;20193;-77
2022/11/23 19:48:29;;;;;;;18.10;4.27;;;;;8.10;99561.00;;;;10432527;28;20664;-76
2022/11/23 19:53:33;;;;;;;14.80;3.53;;;;;8.10;99571.00;;;;10428969;28;20194;-77
2022/11/23 19:58:35;;;;;;;18.10;4.03;;;;;8.00;99591.00;;;;10446621;28;20223;-77
2022/11/23 20:03:39;;;;;;;12.53;3.40;;;;;7.90;99590.00;;;;10425772;28;20260;-77
2022/11/23 20:08:42;;;;;;;19.80;4.37;;;;;7.80;99597.00;;;;10452863;28;20308;-77
2022/11/23 20:13:44;;;;;;;17.80;3.90;;;;;7.80;99605.00;;;;10460309;28;20218;-76
2022/11/23 20:18:49;;;;;;;14.27;3.53;;;;;7.70;99610.00;;;;10465490;28;20194;-76
2022/11/23 20:23:57;;;;;;;16.70;4.33;;;;;7.70;99613.00;;;;10418409;28;20644;-76
2022/11/23 20:29:06;;;;;;;11.33;4.20;;;;;7.70;99602.00;;;;10447081;28;20205;-77
2022/11/23 20:34:08;;;;;;;15.37;3.47;;;;;7.70;99615.00;;;;10421049;28;20225;-77
2022/11/23 20:39:17;;;;;;;18.87;3.53;;;;;7.70;99613.00;;;;10417699;28;20744;-77
2022/11/23 20:44:20;;;;;;;13.30;3.33;;;;;7.60;99615.00;;;;10448264;28;20217;-76
2022/11/23 20:49:22;;;;;;;19.13;4.23;;;;;7.70;99632.00;;;;10424551;28;20190;-77
2022/11/23 20:54:23;;;;;;;13.80;3.10;;;;;7.70;99637.00;;;;10431542;28;20234;-77
2022/11/23 20:59:25;;;;;;;13.53;3.00;;;;;7.70;99637.00;;;;10462245;28;20202;-77
2022/11/23 21:04:27;;;;;;;16.87;3.20;;;;;7.80;99640.00;;;;10444859;28;20243;-77
2022/11/23 21:09:29;;;;;;;18.37;3.37;;;;;7.70;99654.00;;;;10453288;28;20221;-77
2022/11/23 21:14:35;;;;;;;12.67;3.10;;;;;7.70;99663.00;;;;10432297;28;20559;-77
2022/11/23 21:19:38;;;;;;;18.90;3.40;;;;;7.60;99674.00;;;;10438212;28;20597;-77
2022/11/23 21:24:40;;;;;;;12.43;2.80;;;;;7.70;99665.00;;;;10453196;28;20648;-77
2022/11/23 21:29:43;;;;;;;13.83;2.90;;;;;7.70;99670.00;;;;10434476;28;20189;-76
2022/11/23 21:34:45;;;;;;;14.50;2.70;;;;;7.80;99660.00;;;;10447493;28;20213;-77
2022/11/23 21:39:47;;;;;;;9.93;2.83;;;;;7.90;99675.00;;;;10441893;28;20186;-76
2022/11/23 21:44:53;;;;;;;16.70;3.13;;;;;8.00;99676.00;;;;10459342;28;20213;-77
2022/11/23 21:49:55;;;;;;;11.50;2.53;;;;;8.00;99672.00;;;;10443525;28;20193;-77
2022/11/23 21:54:57;;;;;;;12.77;2.83;;;;;8.00;99676.00;;;;10438286;28;20201;-76
2022/11/23 21:59:59;;;;;;;12.37;3.23;;;;;8.00;99691.00;;;;10446465;28;20202;-77
2022/11/23 22:05:01;;;;;;;16.00;2.97;;;;;7.90;99702.00;;;;10442287;28;20235;-76
2022/11/23 22:10:04;;;;;;;11.67;2.23;;;;;7.90;99719.00;;;;10436076;28;20241;-77
2022/11/23 22:15:06;;;;;;;9.87;2.83;;;;;7.90;99739.00;;;;10429158;28;20540;-76
2022/11/23 22:20:09;;;;;;;16.40;2.87;;;;;7.90;99764.00;;;;10423409;28;20691;-76
2022/11/23 22:25:11;;;;;;;12.23;2.40;;;;;7.90;99771.00;;;;10420322;28;20202;-76
2022/11/23 22:30:14;;;;;;;15.83;2.63;;;;;8.00;99795.00;;;;10408326;28;20191;-77
2022/11/23 22:35:16;;;;;;;18.43;2.73;;;;;8.00;99796.00;;;;10431872;28;20202;-77
2022/11/23 22:40:18;;;;;;;11.57;3.60;;;;;8.10;99781.00;;;;10468648;28;20587;-77
2022/11/23 22:45:20;;;;;;;10.90;2.33;;;;;8.20;99781.00;;;;10429525;28;20194;-76
2022/11/23 22:50:22;;;;;;;18.43;2.90;;;;;8.20;99779.00;;;;10437286;28;20197;-77
2022/11/23 22:55:24;;;;;;;14.50;2.80;;;;;8.30;99777.00;;;;10438449;28;20288;-77
2022/11/23 23:00:26;;;;;;;12.27;2.37;;;;;8.20;99783.00;;;;10431800;28;20206;-77
2022/11/23 23:05:28;;;;;;;13.03;2.83;;;;;8.20;99780.00;;;;10446392;28;20182;-76
2022/11/23 23:10:30;;;;;;;9.83;2.40;;;;;8.10;99784.00;;;;10427208;28;20288;-77
2022/11/23 23:15:32;;;;;;;12.60;1.83;;;;;8.10;99783.00;;;;10455955;28;20253;-77
2022/11/23 23:20:34;;;;;;;12.57;2.73;;;;;8.10;99789.00;;;;10425001;28;20248;-77
2022/11/23 23:25:36;;;;;;;12.67;1.90;;;;;8.00;99791.00;;;;10437493;28;20738;-77
2022/11/23 23:30:38;;;;;;;13.17;2.13;;;;;7.90;99800.00;;;;10421785;28;20193;-77
2022/11/23 23:35:40;;;;;;;9.23;1.97;;;;;7.80;99803.00;;;;10446101;28;20277;-77
2022/11/23 23:40:42;;;;;;;11.97;2.87;;;;;7.90;99802.00;;;;10451857;28;20202;-76
2022/11/23 23:45:44;;;;;;;8.90;2.07;;;;;7.90;99791.00;;;;10423390;28;20181;-76
2022/11/23 23:50:46;;;;;;;12.20;2.80;;;;;7.90;99794.00;;;;10409364;28;20191;-76
2022/11/23 23:55:59;;;;;;;5.03;2.17;;;;;7.90;99796.00;;;;10460184;28;20251;-76
